createdAt,value
2018-09-24T00:00:50.836Z,102003.22
2018-09-24T00:01:56.314Z,102001.95
2018-09-24T00:03:01.834Z,101999.02
2018-09-24T00:04:07.507Z,102003.23
2018-09-24T00:05:12.897Z,102008.78
2018-09-24T00:06:18.481Z,102011.73
2018-09-24T00:07:24.028Z,102008.73
2018-09-24T00:08:29.490Z,102009.20
2018-09-24T00:09:35.229Z,102010.88
2018-09-24T00:10:40.657Z,102013.42
2018-09-24T00:11:46.133Z,102016.83
2018-09-24T00:12:51.544Z,102013.80
2018-09-24T00:13:57.340Z,102019.31
2018-09-24T00:15:03.020Z,102019.28
2018-09-24T00:16:08.670Z,102026.54
2018-09-24T00:17:14.128Z,102021.44
2018-09-24T00:18:19.566Z,102021.02
2018-09-24T00:19:25.013Z,102019.33
2018-09-24T00:20:30.469Z,102024.84
2018-09-24T00:21:35.964Z,102021.90
2018-09-24T00:22:41.401Z,102028.67
2018-09-24T00:23:46.933Z,102027.00
2018-09-24T00:24:52.660Z,102030.81
2018-09-24T00:25:58.270Z,102036.34
2018-09-24T00:27:03.821Z,102029.48
2018-09-24T00:28:09.325Z,102037.59
2018-09-24T00:29:14.702Z,102035.84
2018-09-24T00:30:20.209Z,102037.14
2018-09-24T00:31:25.672Z,102043.07
2018-09-24T00:32:31.122Z,102044.77
2018-09-24T00:33:36.533Z,102042.22
2018-09-24T00:34:41.917Z,102046.93
2018-09-24T00:35:47.562Z,102048.60
2018-09-24T00:36:52.981Z,102045.64
2018-09-24T00:37:58.602Z,102051.16
2018-09-24T00:39:04.970Z,102047.33
2018-09-24T00:40:10.555Z,102054.12
2018-09-24T00:41:16.039Z,102058.38
2018-09-24T00:42:21.530Z,102057.52
2018-09-24T00:43:27.208Z,102062.61
2018-09-24T00:44:32.464Z,102070.68
2018-09-24T00:45:38.140Z,102073.25
2018-09-24T00:46:43.677Z,102063.44
2018-09-24T00:47:49.185Z,102068.14
2018-09-24T00:48:54.709Z,102069.42
2018-09-24T00:50:00.173Z,102076.67
2018-09-24T00:51:05.640Z,102080.04
2018-09-24T00:52:11.411Z,102082.17
2018-09-24T00:53:16.893Z,102083.80
2018-09-24T00:54:22.376Z,102086.78
2018-09-24T00:55:27.884Z,102090.98
2018-09-24T00:56:33.369Z,102095.69
2018-09-24T00:57:38.869Z,102098.25
2018-09-24T00:58:44.280Z,102101.64
2018-09-24T00:59:49.684Z,102097.36
2018-09-24T01:00:55.075Z,102100.77
2018-09-24T01:02:00.535Z,102098.27
2018-09-24T01:03:06.062Z,102101.68
2018-09-24T01:04:11.529Z,102108.05
2018-09-24T01:05:17.232Z,102112.69
2018-09-24T01:06:22.648Z,102106.74
2018-09-24T01:07:28.322Z,102115.21
2018-09-24T01:08:33.918Z,102111.39
2018-09-24T01:09:39.452Z,102110.11
2018-09-24T01:10:44.928Z,102107.56
2018-09-24T01:11:50.396Z,102113.07
2018-09-24T01:12:55.892Z,102113.94
2018-09-24T01:14:01.361Z,102115.65
2018-09-24T01:15:07.236Z,102112.25
2018-09-24T01:16:12.666Z,102118.64
2018-09-24T01:17:18.334Z,102119.49
2018-09-24T01:18:23.813Z,102122.47
2018-09-24T01:19:29.344Z,102123.34
2018-09-24T01:20:34.778Z,102124.98
2018-09-24T01:21:40.312Z,102125.39
2018-09-24T01:22:46.121Z,102126.70
2018-09-24T01:23:51.524Z,102129.26
2018-09-24T01:24:56.973Z,102124.14
2018-09-24T01:26:02.429Z,102131.81
2018-09-24T01:27:08.295Z,102133.95
2018-09-24T01:28:13.869Z,102134.75
2018-09-24T01:29:19.315Z,102139.01
2018-09-24T01:30:24.762Z,102139.46
2018-09-24T01:31:30.185Z,102141.15
2018-09-24T01:32:35.590Z,102140.28
2018-09-24T01:33:41.060Z,102145.81
2018-09-24T01:34:46.510Z,102149.65
2018-09-24T01:35:52.046Z,102149.28
2018-09-24T01:36:57.650Z,102148.00
2018-09-24T01:38:03.184Z,102152.31
2018-09-24T01:39:09.379Z,102155.28
2018-09-24T01:40:14.865Z,102160.39
2018-09-24T01:41:20.269Z,102154.46
2018-09-24T01:42:25.908Z,102159.56
2018-09-24T01:43:31.321Z,102160.39
2018-09-24T01:44:36.823Z,102168.47
2018-09-24T01:45:42.286Z,102169.33
2018-09-24T01:46:47.870Z,102167.62
2018-09-24T01:47:53.318Z,102168.52
2018-09-24T01:48:58.837Z,102169.35
2018-09-24T01:50:04.465Z,102170.61
2018-09-24T01:51:09.853Z,102175.69
2018-09-24T01:52:15.416Z,102174.41
2018-09-24T01:53:20.870Z,102179.10
2018-09-24T01:54:31.120Z,102180.36
2018-09-24T01:55:37.230Z,102183.37
2018-09-24T01:56:42.660Z,102184.19
2018-09-24T01:57:48.137Z,102183.34
2018-09-24T01:58:53.576Z,102184.64
2018-09-24T01:59:59.275Z,102189.31
2018-09-24T02:01:05.113Z,102185.47
2018-09-24T02:02:10.577Z,102187.21
2018-09-24T02:03:16.109Z,102189.30
2018-09-24T02:04:21.521Z,102188.42
2018-09-24T02:05:26.954Z,102194.84
2018-09-24T02:06:32.369Z,102191.45
2018-09-24T02:07:37.920Z,102197.82
2018-09-24T02:08:44.805Z,102194.41
2018-09-24T02:09:50.226Z,102191.45
2018-09-24T02:10:55.696Z,102188.91
2018-09-24T02:12:06.706Z,102205.06
2018-09-24T02:13:12.099Z,102199.13
2018-09-24T02:14:17.584Z,102201.65
2018-09-24T02:15:31.292Z,102197.83
2018-09-24T02:16:36.827Z,102206.32
2018-09-24T02:17:42.237Z,102210.11
2018-09-24T02:18:48.208Z,102210.09
2018-09-24T02:19:53.700Z,102214.32
2018-09-24T02:20:59.124Z,102214.75
2018-09-24T02:22:04.641Z,102220.30
2018-09-24T02:23:10.103Z,102215.19
2018-09-24T02:24:15.542Z,102219.91
2018-09-24T02:25:21.018Z,102218.65
2018-09-24T02:26:26.566Z,102228.85
2018-09-24T02:27:32.061Z,102236.12
2018-09-24T02:28:37.508Z,102234.04
2018-09-24T02:29:43.301Z,102236.98
2018-09-24T02:30:48.701Z,102236.95
2018-09-24T02:31:54.178Z,102238.19
2018-09-24T02:32:59.681Z,102237.77
2018-09-24T02:34:05.110Z,102239.91
2018-09-24T02:35:11.192Z,102243.72
2018-09-24T02:36:16.713Z,102245.84
2018-09-24T02:37:22.248Z,102248.37
2018-09-24T02:38:27.728Z,102243.29
2018-09-24T02:39:33.221Z,102236.09
2018-09-24T02:40:38.629Z,102233.52
2018-09-24T02:41:44.038Z,102235.59
2018-09-24T02:42:50.001Z,102239.43
2018-09-24T02:43:55.448Z,102243.67
2018-09-24T02:45:01.082Z,102241.53
2018-09-24T02:46:06.981Z,102240.70
2018-09-24T02:47:12.411Z,102231.34
2018-09-24T02:48:17.806Z,102239.02
2018-09-24T02:49:23.284Z,102243.24
2018-09-24T02:50:44.477Z,102241.09
2018-09-24T02:51:50.214Z,102251.69
2018-09-24T02:52:55.661Z,102251.71
2018-09-24T02:54:01.178Z,102255.96
2018-09-24T02:55:16.201Z,102261.05
2018-09-24T02:56:21.616Z,102260.17
2018-09-24T02:57:27.078Z,102265.27
2018-09-24T02:58:32.673Z,102264.40
2018-09-24T02:59:43.816Z,102270.35
2018-09-24T03:00:49.517Z,102272.86
2018-09-24T03:01:55.012Z,102270.75
2018-09-24T03:03:00.512Z,102269.91
2018-09-24T03:04:06.212Z,102274.11
2018-09-24T03:05:11.617Z,102274.52
2018-09-24T03:06:17.037Z,102280.02
2018-09-24T03:07:23.311Z,102280.04
2018-09-24T03:08:28.812Z,102285.14
2018-09-24T03:09:36.120Z,102285.98
2018-09-24T03:10:42.211Z,102282.56
2018-09-24T03:11:48.054Z,102291.89
2018-09-24T03:12:53.613Z,102292.34
2018-09-24T03:13:59.220Z,102289.34
2018-09-24T03:15:04.772Z,102293.59
2018-09-24T03:16:10.257Z,102295.31
2018-09-24T03:17:19.293Z,102302.98
2018-09-24T03:18:24.793Z,102296.19
2018-09-24T03:19:30.257Z,102300.92
2018-09-24T03:20:40.746Z,102301.28
2018-09-24T03:21:46.336Z,102301.66
2018-09-24T03:22:51.776Z,102299.52
2018-09-24T03:23:57.302Z,102308.41
2018-09-24T03:25:08.185Z,102304.98
2018-09-24T03:26:13.698Z,102307.05
2018-09-24T03:27:19.268Z,102309.19
2018-09-24T03:28:24.691Z,102305.34
2018-09-24T03:29:30.245Z,102302.80
2018-09-24T03:30:41.272Z,102307.02
2018-09-24T03:31:46.718Z,102309.17
2018-09-24T03:32:52.148Z,102318.95
2018-09-24T03:33:57.582Z,102325.74
2018-09-24T03:35:03.037Z,102321.47
2018-09-24T03:36:08.488Z,102331.22
2018-09-24T03:37:14.102Z,102324.37
2018-09-24T03:38:19.621Z,102327.77
2018-09-24T03:39:25.194Z,102332.42
2018-09-24T03:40:31.059Z,102325.24
2018-09-24T03:41:36.493Z,102325.22
2018-09-24T03:42:41.905Z,102320.12
2018-09-24T03:43:47.614Z,102325.24
2018-09-24T03:44:53.114Z,102331.22
2018-09-24T03:45:58.609Z,102337.98
2018-09-24T03:47:04.053Z,102329.95
2018-09-24T03:48:09.516Z,102329.47
2018-09-24T03:49:14.952Z,102326.44
2018-09-24T03:50:20.454Z,102329.00
2018-09-24T03:51:25.930Z,102331.09
2018-09-24T03:52:31.329Z,102320.92
2018-09-24T03:53:43.442Z,102322.22
2018-09-24T03:54:48.853Z,102318.85
2018-09-24T03:55:54.318Z,102320.12
2018-09-24T03:56:59.725Z,102323.94
2018-09-24T03:58:05.157Z,102324.83
2018-09-24T03:59:10.757Z,102321.87
2018-09-24T04:00:16.261Z,102320.59
2018-09-24T04:01:21.697Z,102323.59
2018-09-24T04:02:27.151Z,102328.29
2018-09-24T04:03:32.823Z,102332.99
2018-09-24T04:04:43.435Z,102335.09
2018-09-24T04:05:54.004Z,102335.09
2018-09-24T04:07:04.633Z,102340.19
2018-09-24T04:08:15.333Z,102341.47
2018-09-24T04:09:26.373Z,102348.64
2018-09-24T04:10:36.968Z,102346.12
2018-09-24T04:11:47.957Z,102346.52
2018-09-24T04:12:58.538Z,102353.71
2018-09-24T04:14:09.558Z,102353.26
2018-09-24T04:15:23.380Z,102357.14
2018-09-24T04:16:34.113Z,102352.44
2018-09-24T04:17:44.665Z,102352.86
2018-09-24T04:18:55.317Z,102352.89
2018-09-24T04:20:06.118Z,102355.84
2018-09-24T04:21:16.704Z,102356.29
2018-09-24T04:22:27.273Z,102362.23
2018-09-24T04:23:37.997Z,102363.08
2018-09-24T04:24:48.582Z,102363.94
2018-09-24T04:25:59.024Z,102363.91
2018-09-24T04:27:09.722Z,102368.58
2018-09-24T04:28:20.312Z,102373.70
2018-09-24T04:29:31.000Z,102374.13
2018-09-24T04:30:41.661Z,102378.30
2018-09-24T04:31:52.285Z,102379.10
2018-09-24T04:33:03.012Z,102376.95
2018-09-24T04:34:13.633Z,102383.72
2018-09-24T04:35:24.028Z,102385.00
2018-09-24T04:36:34.518Z,102381.11
2018-09-24T04:37:45.297Z,102392.47
2018-09-24T04:38:56.078Z,102396.66
2018-09-24T04:40:06.694Z,102394.11
2018-09-24T04:41:17.407Z,102394.05
2018-09-24T04:42:28.021Z,102395.33
2018-09-24T04:43:38.570Z,102392.75
2018-09-24T04:44:49.312Z,102396.60
2018-09-24T04:46:00.091Z,102402.60
2018-09-24T04:47:10.853Z,102408.58
2018-09-24T04:48:21.530Z,102413.31
2018-09-24T04:49:32.149Z,102414.19
2018-09-24T04:50:43.125Z,102415.49
2018-09-24T04:51:53.853Z,102407.03
2018-09-24T04:53:04.589Z,102406.63
2018-09-24T04:54:15.572Z,102413.03
2018-09-24T04:55:26.421Z,102410.06
2018-09-24T04:56:37.049Z,102407.91
2018-09-24T04:57:47.701Z,102409.15
2018-09-24T04:58:58.328Z,102411.30
2018-09-24T05:00:09.157Z,102414.30
2018-09-24T05:01:19.878Z,102415.09
2018-09-24T05:02:30.329Z,102421.50
2018-09-24T05:03:40.905Z,102424.81
2018-09-24T05:04:51.682Z,102421.80
2018-09-24T05:06:02.285Z,102425.23
2018-09-24T05:07:12.856Z,102425.23
2018-09-24T05:08:23.535Z,102422.27
2018-09-24T05:09:34.166Z,102420.95
2018-09-24T05:10:44.878Z,102424.35
2018-09-24T05:11:55.553Z,102420.08
2018-09-24T05:13:06.069Z,102417.44
2018-09-24T05:14:17.093Z,102424.33
2018-09-24T05:15:27.746Z,102420.53
2018-09-24T05:16:38.608Z,102424.86
2018-09-24T05:17:49.493Z,102424.02
2018-09-24T05:19:00.430Z,102425.66
2018-09-24T05:20:10.991Z,102423.11
2018-09-24T05:21:21.684Z,102431.63
2018-09-24T05:22:32.409Z,102434.67
2018-09-24T05:23:43.371Z,102431.70
2018-09-24T05:24:54.410Z,102438.52
2018-09-24T05:26:05.117Z,102435.45
2018-09-24T05:27:16.031Z,102438.43
2018-09-24T05:28:26.563Z,102433.27
2018-09-24T05:29:37.402Z,102431.58
2018-09-24T05:30:48.317Z,102435.43
2018-09-24T05:31:59.148Z,102437.06
2018-09-24T05:33:09.894Z,102445.11
2018-09-24T05:34:20.655Z,102447.27
2018-09-24T05:35:31.564Z,102448.53
2018-09-24T05:36:42.187Z,102447.72
2018-09-24T05:37:52.911Z,102449.41
2018-09-24T05:39:03.785Z,102450.72
2018-09-24T05:40:14.645Z,102449.02
2018-09-24T05:41:25.373Z,102446.02
2018-09-24T05:42:36.322Z,102448.17
2018-09-24T05:43:47.421Z,102443.92
2018-09-24T05:44:57.876Z,102445.62
2018-09-24T05:46:08.875Z,102448.20
2018-09-24T05:47:19.823Z,102455.06
2018-09-24T05:48:30.369Z,102463.55
2018-09-24T05:49:41.318Z,102459.77
2018-09-24T05:50:51.947Z,102464.00
2018-09-24T05:52:02.846Z,102464.04
2018-09-24T05:53:20.756Z,102473.02
2018-09-24T05:54:32.190Z,102472.59
2018-09-24T05:55:42.968Z,102476.00
2018-09-24T05:56:53.649Z,102478.15
2018-09-24T05:58:04.461Z,102477.30
2018-09-24T05:59:15.339Z,102481.55
2018-09-24T06:00:26.013Z,102484.95
2018-09-24T06:01:36.928Z,102485.00
2018-09-24T06:02:47.618Z,102486.73
2018-09-24T06:03:58.305Z,102481.66
2018-09-24T06:05:08.914Z,102491.98
2018-09-24T06:06:19.896Z,102496.31
2018-09-24T06:07:30.637Z,102496.83
2018-09-24T06:08:41.900Z,102504.51
2018-09-24T06:09:52.626Z,102500.66
2018-09-24T06:11:03.344Z,102504.96
2018-09-24T06:12:14.181Z,102510.94
2018-09-24T06:13:24.956Z,102500.73
2018-09-24T06:14:35.498Z,102508.36
2018-09-24T06:15:46.309Z,102504.65
2018-09-24T06:16:57.301Z,102511.45
2018-09-24T06:18:07.996Z,102508.16
2018-09-24T06:19:19.041Z,102511.63
2018-09-24T06:20:30.089Z,102512.07
2018-09-24T06:21:41.065Z,102509.98
2018-09-24T06:22:51.695Z,102515.55
2018-09-24T06:24:02.713Z,102521.53
2018-09-24T06:25:13.861Z,102524.12
2018-09-24T06:26:24.669Z,102523.72
2018-09-24T06:27:36.050Z,102515.72
2018-09-24T06:28:46.748Z,102522.95
2018-09-24T06:29:57.324Z,102526.83
2018-09-24T06:31:07.950Z,102523.42
2018-09-24T06:32:18.485Z,102520.08
2018-09-24T06:33:29.241Z,102520.12
2018-09-24T06:34:40.429Z,102528.72
2018-09-24T06:35:50.950Z,102527.92
2018-09-24T06:37:01.417Z,102534.80
2018-09-24T06:38:12.281Z,102539.93
2018-09-24T06:39:23.030Z,102537.83
2018-09-24T06:40:33.662Z,102539.18
2018-09-24T06:41:44.283Z,102541.36
2018-09-24T06:42:54.853Z,102539.25
2018-09-24T06:44:05.561Z,102545.21
2018-09-24T06:45:16.257Z,102555.08
2018-09-24T06:46:26.989Z,102550.47
2018-09-24T06:47:37.557Z,102554.75
2018-09-24T06:48:48.185Z,102557.32
2018-09-24T06:49:59.103Z,102551.41
2018-09-24T06:51:09.717Z,102560.42
2018-09-24T06:52:20.262Z,102550.66
2018-09-24T06:53:30.841Z,102561.30
2018-09-24T06:54:41.469Z,102568.20
2018-09-24T06:55:52.017Z,102570.42
2018-09-24T06:57:02.627Z,102564.55
2018-09-24T06:58:13.237Z,102573.63
2018-09-24T06:59:23.964Z,102574.06
2018-09-24T07:00:34.469Z,102575.44
2018-09-24T07:01:45.234Z,102583.16
2018-09-24T07:02:56.022Z,102578.58
2018-09-24T07:04:06.667Z,102579.95
2018-09-24T07:05:17.433Z,102578.77
2018-09-24T07:06:28.044Z,102576.77
2018-09-24T07:07:38.461Z,102580.73
2018-09-24T07:08:49.021Z,102583.34
2018-09-24T07:09:59.797Z,102587.72
2018-09-24T07:11:10.393Z,102592.50
2018-09-24T07:12:21.189Z,102596.91
2018-09-24T07:13:31.952Z,102594.38
2018-09-24T07:14:42.710Z,102596.59
2018-09-24T07:15:53.269Z,102598.77
2018-09-24T07:17:03.989Z,102600.95
2018-09-24T07:18:14.570Z,102598.84
2018-09-24T07:19:25.314Z,102599.27
2018-09-24T07:20:36.228Z,102608.22
2018-09-24T07:21:47.129Z,102609.08
2018-09-24T07:22:57.650Z,102611.66
2018-09-24T07:24:08.240Z,102614.66
2018-09-24T07:25:18.854Z,102615.50
2018-09-24T07:26:29.432Z,102617.58
2018-09-24T07:27:40.103Z,102624.85
2018-09-24T07:28:50.681Z,102620.21
2018-09-24T07:30:01.521Z,102622.81
2018-09-24T07:31:12.186Z,102621.09
2018-09-24T07:32:23.000Z,102631.36
2018-09-24T07:33:33.725Z,102630.91
2018-09-24T07:34:44.449Z,102635.16
2018-09-24T07:35:55.110Z,102632.62
2018-09-24T07:37:05.853Z,102627.95
2018-09-24T07:38:16.437Z,102633.09
2018-09-24T07:39:27.433Z,102625.02
2018-09-24T07:40:37.889Z,102638.69
2018-09-24T07:41:49.644Z,102645.12
2018-09-24T07:43:00.952Z,102638.29
2018-09-24T07:44:11.752Z,102635.34
2018-09-24T07:45:22.499Z,102643.91
2018-09-24T07:46:33.269Z,102651.65
2018-09-24T07:47:44.129Z,102647.80
2018-09-24T07:48:54.905Z,102646.96
2018-09-24T07:50:05.849Z,102657.27
2018-09-24T07:51:16.588Z,102657.23
2018-09-24T07:52:27.441Z,102659.39
2018-09-24T07:53:37.970Z,102658.98
2018-09-24T07:54:49.000Z,102667.11
2018-09-24T07:55:59.808Z,102666.67
2018-09-24T07:57:10.428Z,102661.98
2018-09-24T07:58:21.074Z,102666.71
2018-09-24T07:59:31.749Z,102670.15
2018-09-24T08:00:42.608Z,102667.61
2018-09-24T08:01:53.153Z,102674.50
2018-09-24T08:03:03.830Z,102679.22
2018-09-24T08:04:15.242Z,102681.81
2018-09-24T08:05:26.125Z,102683.10
2018-09-24T08:06:36.691Z,102682.69
2018-09-24T08:07:47.559Z,102684.00
2018-09-24T08:08:58.334Z,102674.16
2018-09-24T08:10:09.130Z,102678.48
2018-09-24T08:11:19.825Z,102679.77
2018-09-24T08:12:30.571Z,102675.50
2018-09-24T08:13:41.413Z,102677.63
2018-09-24T08:14:52.266Z,102685.34
2018-09-24T08:16:03.189Z,102688.33
2018-09-24T08:17:14.013Z,102682.78
2018-09-24T08:18:24.830Z,102682.78
2018-09-24T08:19:35.635Z,102691.39
2018-09-24T08:20:46.503Z,102694.41
2018-09-24T08:21:57.181Z,102694.42
2018-09-24T08:23:08.018Z,102695.27
2018-09-24T08:24:18.811Z,102699.57
2018-09-24T08:25:29.590Z,102699.16
2018-09-24T08:26:40.118Z,102699.16
2018-09-24T08:27:50.844Z,102701.33
2018-09-24T08:29:01.824Z,102711.19
2018-09-24T08:30:12.737Z,102706.04
2018-09-24T08:31:23.301Z,102708.20
2018-09-24T08:32:34.253Z,102714.65
2018-09-24T08:33:44.735Z,102709.52
2018-09-24T08:34:55.480Z,102716.38
2018-09-24T08:36:06.354Z,102718.50
2018-09-24T08:37:17.050Z,102722.79
2018-09-24T08:38:27.668Z,102719.39
2018-09-24T08:39:38.260Z,102721.52
2018-09-24T08:40:49.113Z,102717.66
2018-09-24T08:41:59.977Z,102718.08
2018-09-24T08:43:10.621Z,102716.81
2018-09-24T08:44:21.213Z,102713.39
2018-09-24T08:45:31.987Z,102715.52
2018-09-24T08:46:42.704Z,102717.22
2018-09-24T08:47:53.410Z,102721.09
2018-09-24T08:49:04.100Z,102719.38
2018-09-24T08:50:14.941Z,102714.20
2018-09-24T08:51:25.528Z,102715.94
2018-09-24T08:52:36.348Z,102708.64
2018-09-24T08:53:48.274Z,102714.23
2018-09-24T08:54:58.753Z,102716.81
2018-09-24T08:56:09.686Z,102722.80
2018-09-24T08:57:20.269Z,102716.38
2018-09-24T08:58:30.940Z,102715.94
2018-09-24T08:59:42.119Z,102715.06
2018-09-24T09:00:52.814Z,102720.67
2018-09-24T09:02:03.398Z,102718.07
2018-09-24T09:03:13.946Z,102721.94
2018-09-24T09:04:24.481Z,102718.52
2018-09-24T09:05:35.201Z,102732.22
2018-09-24T09:06:45.896Z,102723.63
2018-09-24T09:07:56.536Z,102739.08
2018-09-24T09:09:07.101Z,102732.20
2018-09-24T09:10:17.688Z,102747.22
2018-09-24T09:11:28.264Z,102745.09
2018-09-24T09:12:38.871Z,102741.65
2018-09-24T09:13:49.581Z,102745.92
2018-09-24T09:15:00.210Z,102749.37
2018-09-24T09:16:10.936Z,102751.07
2018-09-24T09:17:21.428Z,102749.78
2018-09-24T09:18:32.004Z,102750.20
2018-09-24T09:19:42.663Z,102752.33
2018-09-24T09:20:53.324Z,102762.59
2018-09-24T09:22:03.955Z,102763.45
2018-09-24T09:23:14.700Z,102758.70
2018-09-24T09:24:25.425Z,102756.09
2018-09-24T09:25:35.986Z,102764.67
2018-09-24T09:26:46.556Z,102764.27
2018-09-24T09:27:57.157Z,102760.80
2018-09-24T09:29:07.709Z,102764.63
2018-09-24T09:30:18.361Z,102760.77
2018-09-24T09:31:28.853Z,102756.41
2018-09-24T09:32:39.417Z,102765.78
2018-09-24T09:33:49.960Z,102763.13
2018-09-24T09:35:00.550Z,102767.76
2018-09-24T09:36:11.401Z,102765.99
2018-09-24T09:37:22.009Z,102773.36
2018-09-24T09:38:32.474Z,102769.95
2018-09-24T09:39:43.041Z,102769.11
2018-09-24T09:40:53.769Z,102771.31
2018-09-24T09:42:04.371Z,102764.94
2018-09-24T09:43:15.165Z,102768.36
2018-09-24T09:44:25.865Z,102764.93
2018-09-24T09:45:36.547Z,102770.08
2018-09-24T09:46:47.372Z,102773.05
2018-09-24T09:47:57.965Z,102775.17
2018-09-24T09:49:08.716Z,102779.87
2018-09-24T09:50:19.359Z,102778.52
2018-09-24T09:51:29.900Z,102775.93
2018-09-24T09:52:40.472Z,102781.05
2018-09-24T09:53:51.166Z,102786.59
2018-09-24T09:55:01.836Z,102786.58
2018-09-24T09:56:12.512Z,102789.14
2018-09-24T09:57:23.231Z,102782.64
2018-09-24T09:58:33.847Z,102789.09
2018-09-24T09:59:44.669Z,102786.95
2018-09-24T10:00:55.298Z,102783.94
2018-09-24T10:02:05.981Z,102784.77
2018-09-24T10:03:16.621Z,102781.78
2018-09-24T10:04:27.356Z,102785.59
2018-09-24T10:05:37.979Z,102784.30
2018-09-24T10:06:48.748Z,102785.58
2018-09-24T10:07:59.409Z,102778.25
2018-09-24T10:09:11.966Z,102777.86
2018-09-24T10:10:22.416Z,102778.29
2018-09-24T10:11:33.090Z,102785.97
2018-09-24T10:12:44.071Z,102782.48
2018-09-24T10:13:54.594Z,102787.17
2018-09-24T10:15:05.316Z,102783.23
2018-09-24T10:16:16.000Z,102777.12
2018-09-24T10:17:26.733Z,102784.78
2018-09-24T10:18:37.369Z,102779.05
2018-09-24T10:19:48.133Z,102778.87
2018-09-24T10:20:58.738Z,102774.77
2018-09-24T10:22:09.429Z,102779.63
2018-09-24T10:23:20.241Z,102780.62
2018-09-24T10:24:30.872Z,102781.56
2018-09-24T10:25:41.362Z,102784.98
2018-09-24T10:26:51.924Z,102790.60
2018-09-24T10:28:02.499Z,102781.67
2018-09-24T10:29:13.249Z,102782.75
2018-09-24T10:30:23.749Z,102787.80
2018-09-24T10:31:34.545Z,102785.38
2018-09-24T10:32:45.389Z,102783.39
2018-09-24T10:33:56.173Z,102784.22
2018-09-24T10:35:06.817Z,102782.22
2018-09-24T10:36:17.503Z,102779.56
2018-09-24T10:37:28.423Z,102793.38
2018-09-24T10:38:38.925Z,102789.98
2018-09-24T10:39:49.473Z,102789.61
2018-09-24T10:41:00.057Z,102784.53
2018-09-24T10:42:10.821Z,102787.25
2018-09-24T10:43:21.421Z,102802.75
2018-09-24T10:44:32.141Z,102793.78
2018-09-24T10:45:42.922Z,102799.45
2018-09-24T10:46:53.695Z,102796.83
2018-09-24T10:48:04.485Z,102795.52
2018-09-24T10:49:15.136Z,102800.22
2018-09-24T10:50:25.687Z,102798.87
2018-09-24T10:51:36.504Z,102798.41
2018-09-24T10:52:47.412Z,102798.78
2018-09-24T10:53:58.396Z,102802.97
2018-09-24T10:55:09.190Z,102809.39
2018-09-24T10:56:19.908Z,102815.47
2018-09-24T10:57:30.528Z,102814.58
2018-09-24T10:58:41.265Z,102815.45
2018-09-24T10:59:51.993Z,102816.33
2018-09-24T11:01:02.642Z,102813.52
2018-09-24T11:02:13.702Z,102821.34
2018-09-24T11:03:24.543Z,102824.80
2018-09-24T11:04:35.321Z,102821.84
2018-09-24T11:05:46.599Z,102818.86
2018-09-24T11:06:57.140Z,102827.95
2018-09-24T11:08:07.723Z,102821.53
2018-09-24T11:09:18.388Z,102827.63
2018-09-24T11:10:29.357Z,102829.42
2018-09-24T11:11:39.988Z,102827.73
2018-09-24T11:12:50.648Z,102820.85
2018-09-24T11:14:01.723Z,102818.68
2018-09-24T11:15:12.493Z,102822.47
2018-09-24T11:16:23.219Z,102815.53
2018-09-24T11:17:34.005Z,102819.81
2018-09-24T11:18:44.645Z,102820.16
2018-09-24T11:19:55.140Z,102822.63
2018-09-24T11:21:05.930Z,102816.98
2018-09-24T11:22:16.560Z,102819.89
2018-09-24T11:23:27.458Z,102816.70
2018-09-24T11:24:38.170Z,102826.48
2018-09-24T11:25:48.906Z,102820.36
2018-09-24T11:26:59.774Z,102812.48
2018-09-24T11:28:10.494Z,102812.35
2018-09-24T11:29:21.452Z,102819.56
2018-09-24T11:30:31.976Z,102823.75
2018-09-24T11:31:42.796Z,102818.09
2018-09-24T11:32:53.299Z,102830.09
2018-09-24T11:34:03.902Z,102826.34
2018-09-24T11:35:14.843Z,102828.34
2018-09-24T11:36:25.555Z,102830.86
2018-09-24T11:37:36.460Z,102834.31
2018-09-24T11:38:47.320Z,102834.09
2018-09-24T11:39:57.943Z,102835.00
2018-09-24T11:41:08.800Z,102840.16
2018-09-24T11:42:19.595Z,102829.50
2018-09-24T11:43:30.173Z,102833.83
2018-09-24T11:44:40.877Z,102834.72
2018-09-24T11:45:51.522Z,102833.83
2018-09-24T11:47:02.370Z,102826.95
2018-09-24T11:48:13.043Z,102833.32
2018-09-24T11:49:23.764Z,102838.02
2018-09-24T11:50:34.327Z,102841.38
2018-09-24T11:51:44.937Z,102830.13
2018-09-24T11:52:55.500Z,102844.69
2018-09-24T11:54:06.463Z,102838.55
2018-09-24T11:55:17.034Z,102833.77
2018-09-24T11:56:27.901Z,102835.89
2018-09-24T11:57:38.690Z,102824.24
2018-09-24T11:58:49.493Z,102834.97
2018-09-24T12:00:00.258Z,102835.38
2018-09-24T12:01:10.914Z,102841.33
2018-09-24T12:02:21.717Z,102833.41
2018-09-24T12:03:32.377Z,102833.41
2018-09-24T12:04:43.347Z,102836.36
2018-09-24T12:05:54.169Z,102830.66
2018-09-24T12:07:04.823Z,102824.38
2018-09-24T12:08:15.589Z,102829.87
2018-09-24T12:09:26.290Z,102829.25
2018-09-24T12:10:37.049Z,102831.97
2018-09-24T12:11:48.183Z,102832.38
2018-09-24T12:12:58.753Z,102834.61
2018-09-24T12:14:09.493Z,102829.13
2018-09-24T12:15:20.344Z,102833.97
2018-09-24T12:16:30.905Z,102839.92
2018-09-24T12:17:41.749Z,102842.29
2018-09-24T12:18:52.330Z,102840.05
2018-09-24T12:20:02.909Z,102841.89
2018-09-24T12:21:13.669Z,102841.59
2018-09-24T12:22:24.669Z,102843.55
2018-09-24T12:23:38.380Z,102836.14
2018-09-24T12:24:48.830Z,102842.81
2018-09-24T12:25:59.481Z,102841.61
2018-09-24T12:27:10.215Z,102833.95
2018-09-24T12:28:20.948Z,102834.00
2018-09-24T12:29:31.803Z,102839.17
2018-09-24T12:30:42.433Z,102836.68
2018-09-24T12:31:55.686Z,102837.12
2018-09-24T12:33:06.316Z,102838.45
2018-09-24T12:34:17.193Z,102841.48
2018-09-24T12:35:27.837Z,102836.36
2018-09-24T12:36:38.479Z,102840.24
2018-09-24T12:37:49.036Z,102838.11
2018-09-24T12:38:59.781Z,102837.67
2018-09-24T12:40:10.667Z,102831.69
2018-09-24T12:41:22.724Z,102838.09
2018-09-24T12:42:33.337Z,102835.94
2018-09-24T12:43:51.074Z,102833.34
2018-09-24T12:45:02.426Z,102833.33
2018-09-24T12:46:13.376Z,102833.26
2018-09-24T12:47:24.210Z,102829.80
2018-09-24T12:48:34.763Z,102836.20
2018-09-24T12:49:45.493Z,102853.34
2018-09-24T12:50:56.216Z,102828.41
2018-09-24T12:52:06.885Z,102832.67
2018-09-24T12:53:17.641Z,102831.38
2018-09-24T12:54:28.278Z,102842.91
2018-09-24T12:55:39.100Z,102842.45
2018-09-24T12:56:49.627Z,102838.53
2018-09-24T12:58:00.309Z,102839.33
2018-09-24T12:59:10.960Z,102836.73
2018-09-24T13:00:21.516Z,102844.45
2018-09-24T13:01:32.010Z,102838.78
2018-09-24T13:02:42.658Z,102833.15
2018-09-24T13:03:53.241Z,102843.89
2018-09-24T13:05:04.093Z,102834.44
2018-09-24T13:06:15.227Z,102843.41
2018-09-24T13:07:25.888Z,102842.86
2018-09-24T13:08:36.626Z,102844.45
2018-09-24T13:09:47.374Z,102837.08